Time;durP1;ratioP1;P1;durP2;ratioP2;P2;SDS_P1;SDS_P2;PMS_P1;PMS_P2;Temp;Humidity;BMP_temperature;BMP_pressure;BME280_temperature;BME280_humidity;BME280_pressure;Samples;Min_cycle;Max_cycle;Signal;HPM_P1;HPM_P2
2023/01/13 00:02:09;;;;;;;3.70;0.60;;;10.00;99.90;;;;;;5027686;28;20214;-74
2023/01/13 00:04:35;;;;;;;2.83;0.83;;;10.00;99.90;;;;;;5028901;28;20216;-70
2023/01/13 00:07:00;;;;;;;0.50;0.50;;;10.00;99.90;;;;;;5044766;28;20216;-73
2023/01/13 00:09:26;;;;;;;0.87;0.70;;;10.00;99.90;;;;;;5043630;28;20186;-79
2023/01/13 00:11:51;;;;;;;0.60;0.60;;;9.90;99.90;;;;;;5027893;28;20233;-78
2023/01/13 00:14:17;;;;;;;1.20;0.50;;;10.00;99.90;;;;;;5024354;28;20216;-77
2023/01/13 00:16:43;;;;;;;1.33;0.60;;;10.00;99.90;;;;;;5026804;28;20875;-75
2023/01/13 00:19:08;;;;;;;1.17;0.80;;;9.90;99.90;;;;;;5042095;28;20208;-74
2023/01/13 00:21:35;;;;;;;0.90;0.40;;;10.00;99.90;;;;;;5051642;28;20211;-79
2023/01/13 00:24:01;;;;;;;0.50;0.50;;;10.00;99.90;;;;;;5051060;28;20195;-81
2023/01/13 00:26:29;;;;;;;1.13;0.43;;;10.00;99.90;;;;;;5048547;28;20227;-79
2023/01/13 00:28:58;;;;;;;0.70;0.40;;;10.00;99.90;;;;;;5032522;28;20223;-79
2023/01/13 00:31:25;;;;;;;1.00;0.50;;;10.00;99.90;;;;;;5035283;28;20207;-72
2023/01/13 00:33:50;;;;;;;1.00;0.50;;;10.00;99.90;;;;;;5047422;28;20238;-74
2023/01/13 00:36:18;;;;;;;0.53;0.50;;;10.00;99.90;;;;;;5043750;28;20219;-75
2023/01/13 00:38:44;;;;;;;0.70;0.70;;;10.00;99.90;;;;;;5046132;28;20188;-72
2023/01/13 00:41:12;;;;;;;0.80;0.50;;;10.00;99.90;;;;;;5045710;28;20249;-74
2023/01/13 00:43:38;;;;;;;1.13;0.60;;;10.00;99.90;;;;;;5044369;28;20566;-72
2023/01/13 00:46:05;;;;;;;1.57;0.60;;;10.00;99.90;;;;;;5046032;28;20234;-73
2023/01/13 00:48:32;;;;;;;0.80;0.50;;;10.00;99.90;;;;;;5030244;28;20224;-72
2023/01/13 00:51:08;;;;;;;1.03;0.60;;;10.00;99.90;;;;;;5044742;28;20191;-73
2023/01/13 00:53:41;;;;;;;1.67;0.67;;;10.00;99.90;;;;;;5042430;28;20219;-71
2023/01/13 00:56:10;;;;;;;0.77;0.67;;;10.00;99.90;;;;;;5025787;28;20622;-71
2023/01/13 00:58:36;;;;;;;1.50;0.50;;;10.00;99.90;;;;;;5034133;28;20211;-76
2023/01/13 01:01:04;;;;;;;1.10;0.60;;;10.00;99.90;;;;;;5048898;28;20208;-71
2023/01/13 01:03:30;;;;;;;0.83;0.40;;;10.00;99.90;;;;;;5047633;28;20581;-71
2023/01/13 01:05:56;;;;;;;1.43;0.60;;;10.00;99.90;;;;;;5050523;28;20196;-71
2023/01/13 01:08:22;;;;;;;1.03;0.50;;;10.00;99.90;;;;;;5028978;28;20231;-72
2023/01/13 01:10:48;;;;;;;1.63;0.50;;;10.00;99.90;;;;;;5051484;28;20649;-72
2023/01/13 01:13:16;;;;;;;1.43;0.67;;;10.00;99.90;;;;;;5050021;28;20206;-72
2023/01/13 01:15:42;;;;;;;0.83;0.50;;;10.00;99.90;;;;;;5046032;28;20312;-72
2023/01/13 01:18:08;;;;;;;1.27;0.60;;;10.10;99.90;;;;;;5048463;28;20206;-73
2023/01/13 01:20:35;;;;;;;1.07;0.60;;;10.00;99.90;;;;;;5032476;28;20596;-71
2023/01/13 01:23:01;;;;;;;1.53;0.77;;;10.10;99.90;;;;;;5048483;28;20220;-79
2023/01/13 01:25:26;;;;;;;1.63;0.80;;;10.10;99.90;;;;;;5053843;28;20234;-80
2023/01/13 01:27:52;;;;;;;0.37;0.37;;;10.10;99.90;;;;;;5044672;28;20361;-79
2023/01/13 01:30:18;;;;;;;4.27;2.17;;;10.10;99.90;;;;;;5042724;28;20223;-78
2023/01/13 01:32:44;;;;;;;2.10;1.37;;;10.10;99.90;;;;;;5033263;28;20265;-79
2023/01/13 01:35:10;;;;;;;4.63;0.80;;;10.10;99.90;;;;;;5034370;28;20256;-76
2023/01/13 01:37:35;;;;;;;0.87;0.50;;;10.10;99.90;;;;;;5040886;28;20222;-75
2023/01/13 01:40:01;;;;;;;0.90;0.70;;;10.10;99.90;;;;;;5046102;28;20682;-74
2023/01/13 01:45:21;;;;;;;0.70;0.70;;;10.10;99.90;;;;;;5049814;28;20195;-78
2023/01/13 01:47:50;;;;;;;0.67;0.50;;;10.10;99.90;;;;;;5051349;28;20312;-77
2023/01/13 01:50:17;;;;;;;0.83;0.50;;;10.10;99.90;;;;;;5040314;28;20298;-77
2023/01/13 01:52:48;;;;;;;1.07;0.67;;;10.10;99.90;;;;;;5028014;28;20338;-76
2023/01/13 01:55:20;;;;;;;1.20;0.43;;;10.10;99.90;;;;;;5046847;28;20332;-78
2023/01/13 01:57:50;;;;;;;1.33;0.77;;;10.10;99.90;;;;;;5047213;28;20316;-75
2023/01/13 02:00:16;;;;;;;1.07;0.70;;;10.10;99.90;;;;;;5041309;28;21515;-76
2023/01/13 02:02:44;;;;;;;1.33;0.50;;;10.10;99.90;;;;;;5041664;28;20205;-79
2023/01/13 02:05:10;;;;;;;1.00;0.50;;;10.10;99.90;;;;;;5046198;28;20772;-79
2023/01/13 02:07:38;;;;;;;1.03;0.50;;;10.20;99.90;;;;;;5047307;28;20219;-78
2023/01/13 02:10:08;;;;;;;0.50;0.40;;;10.20;99.90;;;;;;5032015;28;20230;-75
2023/01/13 02:12:35;;;;;;;0.53;0.40;;;10.20;99.90;;;;;;5053009;28;20212;-79
2023/01/13 02:15:08;;;;;;;1.00;0.50;;;10.20;99.90;;;;;;5048935;28;20721;-75
2023/01/13 02:17:46;;;;;;;0.40;0.30;;;10.10;99.90;;;;;;5032102;28;20216;-76
2023/01/13 02:20:18;;;;;;;0.50;0.50;;;10.20;99.90;;;;;;5047621;28;20253;-74
2023/01/13 02:22:48;;;;;;;0.27;0.27;;;10.10;99.90;;;;;;5043973;28;20956;-79
2023/01/13 02:25:43;;;;;;;1.07;0.37;;;10.10;99.90;;;;;;5030326;28;20669;-79
2023/01/13 02:28:27;;;;;;;0.70;0.30;;;10.10;99.90;;;;;;5044772;28;20359;-76
2023/01/13 02:33:59;;;;;;;0.47;0.37;;;10.10;99.90;;;;;;5046580;28;20306;-73
2023/01/13 02:36:59;;;;;;;0.33;0.33;;;10.00;99.90;;;;;;5047751;28;20211;-73
2023/01/13 02:39:27;;;;;;;1.27;0.87;;;10.00;99.90;;;;;;5049800;28;20217;-72
2023/01/13 02:45:15;;;;;;;0.30;0.30;;;10.00;99.90;;;;;;5047994;28;20211;-75
2023/01/13 02:47:44;;;;;;;1.40;0.40;;;10.00;99.90;;;;;;5048884;28;20594;-78
2023/01/13 02:50:17;;;;;;;0.50;0.30;;;10.10;99.90;;;;;;5047567;28;20218;-75
2023/01/13 02:52:49;;;;;;;0.60;0.40;;;10.00;99.90;;;;;;5047966;28;20294;-78
2023/01/13 02:55:29;;;;;;;0.30;0.30;;;10.00;99.90;;;;;;5044351;28;20214;-73
2023/01/13 02:57:58;;;;;;;1.03;0.70;;;10.10;99.90;;;;;;5043661;28;20203;-74
2023/01/13 03:00:25;;;;;;;0.30;0.30;;;10.20;99.90;;;;;;5045500;28;20313;-77
2023/01/13 03:02:51;;;;;;;0.50;0.50;;;10.30;99.90;;;;;;5044053;28;20180;-75
2023/01/13 03:05:17;;;;;;;1.10;0.30;;;10.20;99.90;;;;;;5046330;28;20222;-76
2023/01/13 03:08:20;;;;;;;0.47;0.27;;;10.20;99.90;;;;;;5046128;28;20212;-76
2023/01/13 03:10:52;;;;;;;0.87;0.30;;;10.10;99.90;;;;;;5027206;28;20243;-75
2023/01/13 03:13:29;;;;;;;0.60;0.40;;;10.10;99.90;;;;;;5027733;28;20306;-76
2023/01/13 03:16:33;;;;;;;0.93;0.30;;;10.20;99.90;;;;;;5041020;28;20314;-73
2023/01/13 03:19:56;;;;;;;0.43;0.33;;;10.20;99.90;;;;;;5044133;28;20245;-75
2023/01/13 03:22:30;;;;;;;0.30;0.30;;;10.20;99.90;;;;;;4966460;28;20320;-74
2023/01/13 03:25:04;;;;;;;1.47;0.40;;;10.20;99.90;;;;;;4967477;28;20284;-73
2023/01/13 03:27:45;;;;;;;1.13;0.60;;;10.20;99.90;;;;;;4990382;28;20338;-76
2023/01/13 03:30:20;;;;;;;0.50;0.40;;;10.20;99.90;;;;;;5043074;28;20776;-78
2023/01/13 03:32:49;;;;;;;0.40;0.40;;;10.20;99.90;;;;;;5046708;28;20198;-75
2023/01/13 03:35:21;;;;;;;0.60;0.30;;;10.20;99.90;;;;;;5052841;28;20231;-77
2023/01/13 03:37:58;;;;;;;0.40;0.40;;;10.20;99.90;;;;;;5026997;28;20219;-75
2023/01/13 03:40:31;;;;;;;0.23;0.20;;;10.10;99.90;;;;;;5045219;28;20218;-76
2023/01/13 03:45:55;;;;;;;0.87;0.30;;;10.10;99.90;;;;;;5044913;28;20588;-76
2023/01/13 03:48:22;;;;;;;0.20;0.20;;;10.10;99.90;;;;;;5044141;28;20257;-75
2023/01/13 03:50:51;;;;;;;0.97;0.20;;;10.10;99.90;;;;;;5048792;28;20175;-76
2023/01/13 03:53:22;;;;;;;0.30;0.30;;;10.00;99.90;;;;;;5050000;28;20212;-73
2023/01/13 03:55:56;;;;;;;0.30;0.30;;;10.00;99.90;;;;;;5049443;28;20268;-74
2023/01/13 03:58:26;;;;;;;0.33;0.33;;;10.00;99.90;;;;;;5045526;28;20254;-75
2023/01/13 04:01:20;;;;;;;0.60;0.50;;;10.00;99.90;;;;;;5030288;28;20662;-75
2023/01/13 04:04:05;;;;;;;0.40;0.40;;;10.00;99.90;;;;;;5042669;28;20695;-75
2023/01/13 04:07:00;;;;;;;0.80;0.50;;;10.00;99.90;;;;;;5041778;28;20298;-73
2023/01/13 04:09:33;;;;;;;0.30;0.30;;;10.00;99.90;;;;;;5044627;28;20709;-74
2023/01/13 04:12:59;;;;;;;0.73;0.50;;;10.00;99.90;;;;;;5046393;28;20215;-73
2023/01/13 04:15:26;;;;;;;1.97;0.40;;;10.00;99.90;;;;;;5043990;28;20223;-75
2023/01/13 04:17:53;;;;;;;0.90;0.40;;;10.00;99.90;;;;;;5044705;28;20213;-74
2023/01/13 04:20:19;;;;;;;1.10;0.50;;;9.90;99.90;;;;;;5048692;28;20219;-75
2023/01/13 04:22:44;;;;;;;2.00;0.40;;;10.00;99.90;;;;;;5044011;28;20218;-75
2023/01/13 04:25:10;;;;;;;0.30;0.30;;;10.00;99.90;;;;;;5045051;28;20220;-74
2023/01/13 04:27:36;;;;;;;0.30;0.30;;;9.90;99.90;;;;;;5043239;28;20231;-73
2023/01/13 04:30:02;;;;;;;0.47;0.30;;;10.00;99.90;;;;;;5044246;28;20664;-75
2023/01/13 04:32:28;;;;;;;0.30;0.30;;;9.90;99.90;;;;;;5046544;28;20219;-76
2023/01/13 04:34:54;;;;;;;0.33;0.20;;;9.90;99.90;;;;;;5048396;28;20295;-74
2023/01/13 04:37:19;;;;;;;0.37;0.30;;;9.80;99.90;;;;;;5045361;28;20716;-75
2023/01/13 04:39:45;;;;;;;0.60;0.20;;;9.90;99.90;;;;;;5024641;28;20212;-74
2023/01/13 04:42:12;;;;;;;0.70;0.70;;;9.80;99.90;;;;;;5047375;28;20212;-76
2023/01/13 04:44:37;;;;;;;2.43;0.37;;;9.80;99.90;;;;;;5043782;28;20211;-75
2023/01/13 04:47:03;;;;;;;0.57;0.50;;;9.80;99.90;;;;;;5047918;28;20269;-75
2023/01/13 04:49:29;;;;;;;0.70;0.40;;;9.80;99.90;;;;;;5047794;28;20216;-76
2023/01/13 04:51:55;;;;;;;1.40;0.37;;;9.80;99.90;;;;;;5033558;28;20215;-76
2023/01/13 04:54:20;;;;;;;0.37;0.30;;;9.80;99.90;;;;;;5049273;28;20214;-75
2023/01/13 04:56:46;;;;;;;1.07;0.50;;;9.70;99.90;;;;;;5047798;28;20235;-75
2023/01/13 04:59:12;;;;;;;1.03;0.50;;;9.80;99.90;;;;;;5046993;28;20200;-74
2023/01/13 05:01:38;;;;;;;0.70;0.50;;;9.70;99.90;;;;;;5044915;28;20233;-74
2023/01/13 05:04:05;;;;;;;0.40;0.40;;;9.70;99.90;;;;;;5031553;28;20677;-75
2023/01/13 05:06:30;;;;;;;0.20;0.20;;;9.80;99.90;;;;;;5034320;28;20692;-73
2023/01/13 05:08:56;;;;;;;0.53;0.40;;;9.80;99.90;;;;;;5049898;28;20191;-75
2023/01/13 05:16:59;;;;;;;0.70;0.30;;;10.00;99.90;;;;;;5047906;28;20237;-75
2023/01/13 05:19:35;;;;;;;0.47;0.40;;;10.00;99.90;;;;;;5048652;28;20223;-76
2023/01/13 05:27:31;;;;;;;0.53;0.40;;;10.10;99.90;;;;;;5045687;28;20229;-74
2023/01/13 05:29:57;;;;;;;0.30;0.30;;;10.10;99.90;;;;;;5026255;28;20181;-75
2023/01/13 05:32:23;;;;;;;0.30;0.30;;;10.10;99.90;;;;;;5048131;28;20636;-73
2023/01/13 05:34:49;;;;;;;2.70;0.40;;;10.10;99.90;;;;;;5046380;28;20212;-74
2023/01/13 05:37:15;;;;;;;0.27;0.27;;;10.10;99.90;;;;;;5047115;28;20695;-74
2023/01/13 05:45:11;;;;;;;0.50;0.50;;;10.10;99.90;;;;;;5045901;28;20744;-77
2023/01/13 05:47:37;;;;;;;1.27;0.60;;;10.10;99.90;;;;;;5049813;28;20195;-74
2023/01/13 05:50:03;;;;;;;0.80;0.70;;;10.10;99.90;;;;;;5046541;28;20199;-76
2023/01/13 05:52:29;;;;;;;1.77;0.60;;;10.10;99.90;;;;;;5052745;28;20199;-75
2023/01/13 05:54:55;;;;;;;1.13;0.57;;;10.10;99.90;;;;;;5041432;28;20661;-77
2023/01/13 05:57:21;;;;;;;1.13;0.80;;;10.10;99.90;;;;;;5034493;28;20200;-77
2023/01/13 05:59:46;;;;;;;1.23;0.60;;;10.10;99.90;;;;;;5052444;28;20183;-74
2023/01/13 06:02:12;;;;;;;0.63;0.50;;;10.00;99.90;;;;;;5049530;28;20216;-74
2023/01/13 06:04:38;;;;;;;2.23;1.30;;;10.10;99.90;;;;;;5050023;28;20692;-75
2023/01/13 06:07:03;;;;;;;2.40;0.50;;;10.00;99.90;;;;;;5049716;28;20212;-75
2023/01/13 06:09:29;;;;;;;0.60;0.50;;;10.00;99.90;;;;;;5051942;28;20315;-75
2023/01/13 06:11:55;;;;;;;5.00;0.80;;;9.90;99.90;;;;;;5053155;28;20180;-75
2023/01/13 06:14:20;;;;;;;0.30;0.30;;;9.90;99.90;;;;;;5048944;28;20200;-74
2023/01/13 06:16:46;;;;;;;1.07;0.53;;;9.90;99.90;;;;;;5047583;28;20207;-73
2023/01/13 06:19:12;;;;;;;0.70;0.63;;;9.90;99.90;;;;;;5053066;28;20789;-75
2023/01/13 06:21:43;;;;;;;1.10;0.80;;;9.90;99.90;;;;;;5033907;28;20207;-75
2023/01/13 06:24:09;;;;;;;1.90;0.53;;;9.90;99.90;;;;;;5035247;28;20172;-73
2023/01/13 06:26:38;;;;;;;0.97;0.50;;;9.90;99.90;;;;;;5035153;28;20592;-74
2023/01/13 06:29:05;;;;;;;1.43;0.60;;;9.90;99.90;;;;;;5045631;28;20205;-75
2023/01/13 06:31:32;;;;;;;0.67;0.57;;;9.90;99.90;;;;;;5053913;28;20234;-75
2023/01/13 06:34:02;;;;;;;0.70;0.60;;;9.90;99.90;;;;;;5048901;28;20202;-75
2023/01/13 06:36:38;;;;;;;1.33;0.60;;;9.90;99.90;;;;;;5049294;28;20263;-75
2023/01/13 06:39:04;;;;;;;1.50;0.90;;;9.90;99.90;;;;;;5049605;28;20178;-76
2023/01/13 06:44:17;;;;;;;0.97;0.77;;;10.00;99.90;;;;;;5052546;28;20215;-77
2023/01/13 06:46:42;;;;;;;0.70;0.40;;;10.00;99.90;;;;;;5035351;28;20325;-75
2023/01/13 06:49:08;;;;;;;1.07;0.60;;;10.10;99.90;;;;;;5048298;28;20200;-77
2023/01/13 06:51:34;;;;;;;1.13;0.60;;;10.10;99.90;;;;;;5052185;28;20203;-75
2023/01/13 06:53:59;;;;;;;0.50;0.43;;;10.10;99.90;;;;;;5050692;28;20172;-76
2023/01/13 06:56:25;;;;;;;1.07;0.63;;;10.10;99.90;;;;;;5049377;28;20212;-77
2023/01/13 06:58:50;;;;;;;1.37;0.50;;;10.10;99.90;;;;;;5053457;28;20207;-76
2023/01/13 07:01:16;;;;;;;0.53;0.40;;;10.10;99.90;;;;;;5033571;28;20232;-75
2023/01/13 07:03:42;;;;;;;1.03;0.60;;;10.10;99.90;;;;;;5053647;28;20636;-75
2023/01/13 07:06:07;;;;;;;0.93;0.57;;;10.10;99.90;;;;;;5053492;28;20202;-76
2023/01/13 07:08:33;;;;;;;1.47;0.67;;;10.10;99.90;;;;;;5053440;28;20290;-77
2023/01/13 07:11:01;;;;;;;4.30;0.50;;;10.10;99.90;;;;;;5032903;28;20208;-75
2023/01/13 07:16:10;;;;;;;1.30;0.50;;;10.10;99.90;;;;;;5044995;28;20277;-76
2023/01/13 07:18:36;;;;;;;0.40;0.30;;;10.10;99.90;;;;;;5057359;28;20210;-76
2023/01/13 07:21:10;;;;;;;2.00;0.80;;;10.10;99.90;;;;;;5048195;28;20171;-77
2023/01/13 07:23:38;;;;;;;1.87;0.70;;;10.10;99.90;;;;;;5051682;28;20248;-76
2023/01/13 07:26:05;;;;;;;2.70;0.57;;;10.10;99.90;;;;;;5033261;28;20254;-76
2023/01/13 07:28:32;;;;;;;1.33;0.60;;;10.10;99.90;;;;;;5051217;28;20223;-76
2023/01/13 07:30:57;;;;;;;3.83;0.80;;;10.10;99.90;;;;;;5036462;28;20207;-76
2023/01/13 07:33:23;;;;;;;1.67;0.67;;;10.10;99.90;;;;;;5047390;28;20184;-74
2023/01/13 07:36:00;;;;;;;0.40;0.40;;;10.10;99.90;;;;;;5044416;28;20203;-76
2023/01/13 07:38:26;;;;;;;0.93;0.57;;;10.10;99.90;;;;;;5034793;28;20205;-76
2023/01/13 07:40:52;;;;;;;2.10;0.73;;;10.10;99.90;;;;;;5048949;28;20204;-76
2023/01/13 07:43:33;;;;;;;1.20;0.70;;;10.10;99.90;;;;;;5052583;28;20204;-76
2023/01/13 07:46:03;;;;;;;1.37;0.67;;;10.00;99.90;;;;;;5048461;28;20768;-78
2023/01/13 07:48:31;;;;;;;1.70;0.80;;;10.10;99.90;;;;;;5045061;28;20242;-76
2023/01/13 07:51:01;;;;;;;1.03;0.60;;;10.10;99.90;;;;;;5051585;28;20642;-76
2023/01/13 07:53:26;;;;;;;1.80;0.50;;;10.10;99.90;;;;;;5032336;28;20216;-78
2023/01/13 07:55:56;;;;;;;0.93;0.57;;;10.20;99.90;;;;;;5044778;28;20227;-76
2023/01/13 07:58:22;;;;;;;1.93;0.63;;;10.20;99.90;;;;;;5052234;28;20709;-77
2023/01/13 08:00:48;;;;;;;1.23;0.40;;;10.20;99.90;;;;;;5050296;28;20306;-78
2023/01/13 08:03:13;;;;;;;1.07;0.60;;;10.20;99.90;;;;;;5052355;28;20251;-76
2023/01/13 08:05:39;;;;;;;0.83;0.50;;;10.10;99.90;;;;;;5052688;28;20206;-75
2023/01/13 08:08:05;;;;;;;2.80;0.60;;;10.20;99.90;;;;;;5050570;28;20278;-76
2023/01/13 08:10:30;;;;;;;1.07;0.60;;;10.20;99.90;;;;;;5053297;28;20251;-76
2023/01/13 08:15:40;;;;;;;3.67;0.60;;;10.40;99.90;;;;;;5046593;28;20973;-74
2023/01/13 08:18:06;;;;;;;1.20;0.57;;;10.50;99.90;;;;;;5048628;28;20286;-75
2023/01/13 08:20:31;;;;;;;1.33;0.50;;;10.60;99.90;;;;;;5049594;28;20898;-76
2023/01/13 08:22:58;;;;;;;1.13;0.70;;;10.60;99.90;;;;;;5049718;28;20233;-78
2023/01/13 08:25:25;;;;;;;1.57;0.57;;;10.60;99.90;;;;;;5047238;28;20227;-76
2023/01/13 08:27:52;;;;;;;0.53;0.40;;;10.60;99.90;;;;;;5036436;28;20219;-75
2023/01/13 08:30:18;;;;;;;0.53;0.43;;;10.50;99.90;;;;;;5035040;28;20202;-75
2023/01/13 08:32:44;;;;;;;1.33;0.47;;;10.50;99.90;;;;;;5051196;28;20207;-76
2023/01/13 08:35:10;;;;;;;2.00;0.73;;;10.40;99.90;;;;;;5049159;28;20207;-75
2023/01/13 08:37:36;;;;;;;1.90;0.60;;;10.40;99.90;;;;;;5053463;28;20729;-74
2023/01/13 08:40:02;;;;;;;1.40;0.60;;;10.30;99.90;;;;;;5049094;28;20282;-75
2023/01/13 08:42:28;;;;;;;2.90;0.80;;;10.40;99.90;;;;;;5043567;28;21583;-75
2023/01/13 08:44:53;;;;;;;1.33;0.60;;;10.30;99.90;;;;;;5052458;28;20175;-75
2023/01/13 08:47:19;;;;;;;1.07;0.50;;;10.40;99.90;;;;;;5046994;28;20231;-77
2023/01/13 08:49:45;;;;;;;1.23;0.40;;;10.30;99.90;;;;;;5051006;28;20202;-76
2023/01/13 08:52:11;;;;;;;0.57;0.53;;;10.30;99.90;;;;;;5048986;28;20583;-75
2023/01/13 08:54:38;;;;;;;2.37;0.47;;;10.30;99.90;;;;;;5030862;28;20223;-76
2023/01/13 08:57:04;;;;;;;0.97;0.50;;;10.30;99.90;;;;;;5047649;28;20196;-77
2023/01/13 08:59:30;;;;;;;0.77;0.63;;;10.20;99.90;;;;;;5031272;28;20582;-78
2023/01/13 09:01:55;;;;;;;1.57;0.60;;;10.30;99.90;;;;;;5043725;28;20261;-77
2023/01/13 09:04:23;;;;;;;2.87;0.67;;;10.20;99.90;;;;;;5052958;28;20380;-76
2023/01/13 09:06:50;;;;;;;4.53;1.10;;;10.20;99.90;;;;;;5028660;28;20240;-77
2023/01/13 09:09:16;;;;;;;2.93;0.70;;;10.20;99.90;;;;;;5045559;28;20173;-78
2023/01/13 09:14:31;;;;;;;2.97;0.77;;;10.10;99.90;;;;;;5044660;28;20222;-76
2023/01/13 09:16:58;;;;;;;3.73;0.90;;;10.10;99.90;;;;;;5033217;28;20242;-76
2023/01/13 09:19:24;;;;;;;4.20;1.23;;;10.10;99.90;;;;;;5048498;28;20637;-76
2023/01/13 09:21:51;;;;;;;2.70;0.90;;;10.10;99.90;;;;;;5045910;28;20222;-77
2023/01/13 09:24:17;;;;;;;3.50;0.90;;;10.10;99.90;;;;;;5047595;28;20192;-74
2023/01/13 09:26:43;;;;;;;3.77;0.90;;;10.10;99.90;;;;;;5051879;28;20217;-78
2023/01/13 09:29:09;;;;;;;4.20;1.40;;;10.10;99.90;;;;;;5046684;28;20259;-78
2023/01/13 09:31:35;;;;;;;5.33;1.50;;;10.20;99.90;;;;;;5058321;28;20683;-71
2023/01/13 09:36:46;;;;;;;2.67;1.13;;;10.30;99.90;;;;;;5052187;28;20322;-78
2023/01/13 09:39:12;;;;;;;1.40;1.00;;;10.30;99.90;;;;;;5042454;28;21039;-77
2023/01/13 09:44:54;;;;;;;2.97;1.20;;;10.80;99.90;;;;;;5051792;28;20301;-76
2023/01/13 09:47:23;;;;;;;5.17;1.80;;;10.70;99.90;;;;;;5052653;28;20628;-74
2023/01/13 09:49:48;;;;;;;7.10;1.23;;;10.80;99.90;;;;;;5057047;28;20286;-78
2023/01/13 09:52:21;;;;;;;2.10;0.90;;;10.70;99.90;;;;;;5055047;28;20828;-77
2023/01/13 09:55:24;;;;;;;2.03;0.80;;;10.70;99.90;;;;;;5052594;28;20213;-76
2023/01/13 09:57:50;;;;;;;0.93;0.80;;;10.60;99.90;;;;;;5056364;28;20259;-77
2023/01/13 10:00:40;;;;;;;2.23;0.90;;;10.70;99.90;;;;;;5050920;28;20305;-76
2023/01/13 10:03:38;;;;;;;2.00;0.70;;;10.80;99.90;;;;;;5053188;28;20306;-78
2023/01/13 10:06:12;;;;;;;2.60;0.73;;;10.90;99.90;;;;;;5033537;28;20222;-78
2023/01/13 10:08:43;;;;;;;2.20;0.90;;;11.10;99.90;;;;;;5054635;28;20234;-78
2023/01/13 10:14:25;;;;;;;1.87;0.90;;;11.00;99.90;;;;;;5052290;28;20565;-78
2023/01/13 10:17:16;;;;;;;1.23;0.70;;;11.00;99.90;;;;;;5051983;28;20246;-78
2023/01/13 10:20:11;;;;;;;2.60;0.90;;;11.00;99.90;;;;;;5053191;28;20294;-75
2023/01/13 10:22:57;;;;;;;2.47;0.80;;;11.30;99.90;;;;;;5010672;28;20342;-74
2023/01/13 10:25:37;;;;;;;2.43;0.87;;;11.40;99.90;;;;;;5051378;28;20302;-76
2023/01/13 10:28:12;;;;;;;5.33;2.23;;;11.40;99.90;;;;;;5031851;28;20215;-75
2023/01/13 10:30:41;;;;;;;5.57;1.00;;;11.20;99.90;;;;;;5036100;28;20247;-75
2023/01/13 10:33:19;;;;;;;1.57;0.70;;;11.00;99.90;;;;;;5049916;28;20224;-75
2023/01/13 10:35:57;;;;;;;1.63;0.60;;;10.90;99.90;;;;;;5055930;28;20282;-76
2023/01/13 10:38:28;;;;;;;1.50;0.80;;;10.90;99.90;;;;;;5058465;28;20328;-76
2023/01/13 10:40:57;;;;;;;2.60;0.90;;;10.90;99.90;;;;;;5056018;28;20198;-76
2023/01/13 10:43:23;;;;;;;1.77;0.70;;;10.70;99.90;;;;;;5031848;28;20208;-76
2023/01/13 10:46:05;;;;;;;2.27;0.87;;;10.70;99.90;;;;;;5052322;28;20769;-77
2023/01/13 10:48:41;;;;;;;1.70;0.67;;;10.60;99.90;;;;;;5031113;28;20733;-77
2023/01/13 10:51:19;;;;;;;2.83;0.70;;;10.60;99.90;;;;;;5054347;28;20200;-78
2023/01/13 10:54:12;;;;;;;1.80;0.73;;;10.50;99.90;;;;;;5050718;28;20204;-74
2023/01/13 10:56:39;;;;;;;1.13;0.80;;;10.60;99.90;;;;;;5025075;28;20694;-76
2023/01/13 10:59:08;;;;;;;2.30;0.63;;;10.50;99.90;;;;;;5046569;28;20682;-76
2023/01/13 11:01:34;;;;;;;1.20;0.60;;;10.50;99.90;;;;;;5045726;28;20756;-76
2023/01/13 11:03:59;;;;;;;1.70;0.67;;;10.60;99.90;;;;;;5037297;28;20297;-75
2023/01/13 11:06:28;;;;;;;2.50;0.70;;;10.70;99.90;;;;;;5047273;28;20204;-76
2023/01/13 11:08:57;;;;;;;1.27;0.60;;;10.70;99.90;;;;;;5050560;28;20203;-76
2023/01/13 11:11:42;;;;;;;2.20;0.70;;;10.90;99.90;;;;;;5032921;28;20208;-75
2023/01/13 11:14:32;;;;;;;3.93;0.73;;;10.80;99.90;;;;;;5046619;28;20211;-76
2023/01/13 11:17:01;;;;;;;2.30;0.90;;;11.00;99.90;;;;;;5054801;28;20211;-75
2023/01/13 11:19:29;;;;;;;1.13;0.50;;;11.30;99.90;;;;;;5043522;28;20697;-78
2023/01/13 11:22:13;;;;;;;1.20;0.70;;;11.50;99.90;;;;;;5045313;28;20231;-76
2023/01/13 11:24:45;;;;;;;2.93;0.73;;;11.40;99.90;;;;;;5052562;28;20593;-76
2023/01/13 11:27:19;;;;;;;2.23;0.80;;;11.40;99.90;;;;;;5048912;28;20967;-75
2023/01/13 11:30:21;;;;;;;3.20;0.80;;;11.50;99.90;;;;;;5055881;28;20175;-76
2023/01/13 11:33:00;;;;;;;1.70;0.77;;;11.60;99.90;;;;;;5051033;28;20207;-76
2023/01/13 11:35:27;;;;;;;4.30;0.80;;;11.50;99.90;;;;;;5048414;28;20270;-75
2023/01/13 11:38:00;;;;;;;1.00;0.60;;;11.50;99.90;;;;;;5036290;28;20213;-76
2023/01/13 11:40:47;;;;;;;3.03;0.73;;;11.60;99.90;;;;;;5049266;28;20216;-76
2023/01/13 11:43:46;;;;;;;5.10;0.90;;;11.50;99.90;;;;;;5052739;28;20207;-77
2023/01/13 11:46:12;;;;;;;3.20;1.00;;;11.50;99.90;;;;;;5049555;28;20218;-79
2023/01/13 11:48:41;;;;;;;6.53;2.27;;;11.50;99.90;;;;;;5048560;28;20242;-75
2023/01/13 11:51:12;;;;;;;3.17;1.10;;;11.50;99.90;;;;;;5052440;28;20180;-75
2023/01/13 11:53:48;;;;;;;3.57;0.80;;;11.40;99.90;;;;;;5046178;28;20184;-74
2023/01/13 11:56:16;;;;;;;5.00;1.50;;;11.50;99.90;;;;;;5054093;28;20294;-77
2023/01/13 11:59:39;;;;;;;4.00;1.00;;;11.40;99.90;;;;;;5049039;28;20219;-77
2023/01/13 12:02:19;;;;;;;4.97;0.90;;;11.50;99.90;;;;;;4941087;28;20218;-75
2023/01/13 12:04:56;;;;;;;1.80;1.10;;;11.50;99.90;;;;;;4929175;29;20219;-75
2023/01/13 12:07:43;;;;;;;6.33;1.27;;;11.50;99.90;;;;;;5019257;28;20241;-76
2023/01/13 12:10:15;;;;;;;3.57;0.97;;;11.40;99.90;;;;;;5031457;28;20211;-74
2023/01/13 12:12:52;;;;;;;3.10;1.07;;;11.40;99.90;;;;;;5050502;28;20262;-74
2023/01/13 12:15:21;;;;;;;2.40;1.00;;;11.40;99.90;;;;;;5045243;28;20199;-73
2023/01/13 12:17:55;;;;;;;3.33;0.90;;;11.30;99.90;;;;;;5037566;28;20190;-72
2023/01/13 12:20:30;;;;;;;4.00;1.20;;;11.30;99.90;;;;;;5046740;28;20210;-75
2023/01/13 12:23:01;;;;;;;7.83;1.23;;;11.30;99.90;;;;;;5030759;28;20283;-77
2023/01/13 12:25:53;;;;;;;3.10;1.30;;;11.30;99.90;;;;;;5047223;28;20581;-74
2023/01/13 12:28:25;;;;;;;2.57;1.20;;;11.30;99.90;;;;;;5045005;28;20304;-80
2023/01/13 12:30:59;;;;;;;5.60;1.77;;;11.30;99.90;;;;;;5060367;28;20214;-79
2023/01/13 12:33:52;;;;;;;3.40;1.20;;;11.30;99.90;;;;;;5056461;28;20194;-77
2023/01/13 12:36:31;;;;;;;3.90;1.00;;;11.30;99.90;;;;;;5036236;28;20216;-77
2023/01/13 12:39:08;;;;;;;4.50;1.03;;;11.30;99.90;;;;;;5044600;28;20215;-77
2023/01/13 12:44:29;;;;;;;3.70;1.47;;;11.20;99.90;;;;;;5050976;28;20272;-77
2023/01/13 12:46:57;;;;;;;2.70;0.97;;;11.30;99.90;;;;;;5031745;28;20310;-76
2023/01/13 12:49:33;;;;;;;3.33;1.20;;;11.20;99.90;;;;;;5049680;28;20215;-74
2023/01/13 12:52:11;;;;;;;5.07;1.07;;;11.20;99.90;;;;;;5029206;28;20748;-75
2023/01/13 12:54:39;;;;;;;6.60;1.70;;;11.20;99.90;;;;;;5025288;28;20226;-77
2023/01/13 12:57:24;;;;;;;4.13;1.40;;;11.00;99.90;;;;;;5056160;28;20231;-76
2023/01/13 12:59:59;;;;;;;5.07;1.33;;;11.00;99.90;;;;;;5050299;28;20236;-77
2023/01/13 13:02:26;;;;;;;2.23;1.10;;;11.00;99.90;;;;;;5037488;28;20218;-77
2023/01/13 13:04:55;;;;;;;6.30;1.60;;;11.00;99.90;;;;;;5059472;28;20207;-75
2023/01/13 13:07:29;;;;;;;4.77;1.30;;;11.00;99.90;;;;;;5054060;28;20249;-77
2023/01/13 13:10:16;;;;;;;6.27;1.43;;;11.00;99.90;;;;;;5059641;28;20203;-75
2023/01/13 13:15:32;;;;;;;6.80;1.50;;;10.90;99.90;;;;;;5046439;28;20223;-76
2023/01/13 13:17:58;;;;;;;6.43;1.40;;;11.00;99.90;;;;;;5042527;28;20171;-76
2023/01/13 13:21:01;;;;;;;4.67;0.93;;;11.00;99.90;;;;;;5057208;28;20736;-75
2023/01/13 13:23:27;;;;;;;5.53;1.60;;;11.10;99.90;;;;;;5057905;28;20294;-76
2023/01/13 13:26:12;;;;;;;4.77;1.43;;;11.00;99.90;;;;;;5056177;28;20230;-73
2023/01/13 13:28:47;;;;;;;3.03;1.17;;;10.90;99.90;;;;;;5051103;28;20645;-74
2023/01/13 13:31:23;;;;;;;3.50;1.00;;;11.00;99.90;;;;;;5060397;28;20689;-76
2023/01/13 13:34:05;;;;;;;4.37;1.20;;;11.10;99.90;;;;;;5041168;28;20290;-74
2023/01/13 13:36:43;;;;;;;4.57;1.40;;;11.20;99.90;;;;;;5029697;28;20807;-76
2023/01/13 13:48:25;;;;;;;4.67;1.20;;;10.90;99.90;;;;;;5047440;28;20306;-77
2023/01/13 13:51:00;;;;;;;6.27;1.30;;;10.80;99.90;;;;;;5040028;28;20365;-76
2023/01/13 13:53:38;;;;;;;4.17;1.50;;;10.80;99.90;;;;;;5045419;28;20229;-75
2023/01/13 13:56:19;;;;;;;3.57;1.30;;;10.80;99.90;;;;;;5043557;28;20209;-76
2023/01/13 13:58:47;;;;;;;6.97;1.57;;;10.70;99.90;;;;;;5047590;28;20223;-77
2023/01/13 14:01:25;;;;;;;7.53;1.60;;;10.70;99.90;;;;;;5045654;28;20210;-76
2023/01/13 14:04:21;;;;;;;3.17;1.30;;;10.60;99.90;;;;;;5050470;28;20208;-76
2023/01/13 14:06:57;;;;;;;5.57;1.10;;;10.60;99.90;;;;;;5010436;28;20212;-76
2023/01/13 14:09:24;;;;;;;2.17;1.10;;;10.50;99.90;;;;;;5047522;28;20182;-76
2023/01/13 14:12:07;;;;;;;5.67;1.37;;;10.60;99.90;;;;;;5051416;28;20571;-76
2023/01/13 14:14:33;;;;;;;2.90;1.13;;;10.60;99.90;;;;;;5043578;28;20200;-75